Terminal Aerodrome Forecast
Issued by NWS Sterling, VA

Current Version | Previous Version | Graphics & Text | Print | Product List | Glossary On
Versions: 1 2 3 4 5 6 7 8 9 10 11 12 13 14 15 16 17 18 19 20 21 22 23 24 25 26 27
000
FTUS41 KLWX 232000 AAA
TAFDCA
TAF AMD
KDCA 232034Z 2321/2418 20010KT P6SM VCTS SCT050CB BKN250
     FM240100 24005KT P6SM VCTS BKN040CB BKN080
     FM240700 30004KT P6SM VCTS BKN040CB BKN080
     FM240900 33006KT P6SM BKN040 OVC080=

USA.gov is the U.S. government's official web portal to all federal, state and local government web resources and services.